sensor_id;sensor_type;location;lat;lon;timestamp;P1;durP1;ratioP1;P2;durP2;ratioP2
59516;SDS011;45342;42.662;27.718;2023-12-07T00:01:18;2.47;;;2.05;;
59516;SDS011;45342;42.662;27.718;2023-12-07T00:03:43;3.65;;;2.17;;
59516;SDS011;45342;42.662;27.718;2023-12-07T00:06:09;3.05;;;2.40;;
59516;SDS011;45342;42.662;27.718;2023-12-07T00:08:35;5.05;;;2.40;;
59516;SDS011;45342;42.662;27.718;2023-12-07T00:11:00;2.67;;;2.22;;
59516;SDS011;45342;42.662;27.718;2023-12-07T00:13:26;3.90;;;2.30;;
59516;SDS011;45342;42.662;27.718;2023-12-07T00:15:52;2.40;;;2.20;;
59516;SDS011;45342;42.662;27.718;2023-12-07T00:18:18;2.88;;;2.13;;
59516;SDS011;45342;42.662;27.718;2023-12-07T00:23:10;2.60;;;2.10;;
59516;SDS011;45342;42.662;27.718;2023-12-07T00:25:36;2.38;;;2.05;;
59516;SDS011;45342;42.662;27.718;2023-12-07T00:28:02;2.70;;;2.00;;
59516;SDS011;45342;42.662;27.718;2023-12-07T00:30:28;2.47;;;2.05;;
59516;SDS011;45342;42.662;27.718;2023-12-07T00:33:03;2.80;;;2.13;;
59516;SDS011;45342;42.662;27.718;2023-12-07T00:35:29;2.55;;;2.00;;
59516;SDS011;45342;42.662;27.718;2023-12-07T00:37:57;2.40;;;2.00;;
59516;SDS011;45342;42.662;27.718;2023-12-07T00:40:23;2.53;;;1.85;;
59516;SDS011;45342;42.662;27.718;2023-12-07T00:45:14;3.78;;;1.90;;
59516;SDS011;45342;42.662;27.718;2023-12-07T00:47:40;2.08;;;1.88;;
59516;SDS011;45342;42.662;27.718;2023-12-07T00:50:06;2.55;;;1.98;;
59516;SDS011;45342;42.662;27.718;2023-12-07T00:52:32;2.42;;;2.08;;
59516;SDS011;45342;42.662;27.718;2023-12-07T00:54:58;3.03;;;1.90;;
59516;SDS011;45342;42.662;27.718;2023-12-07T00:57:23;3.55;;;2.15;;
59516;SDS011;45342;42.662;27.718;2023-12-07T00:59:49;2.05;;;1.67;;
59516;SDS011;45342;42.662;27.718;2023-12-07T01:02:14;3.17;;;2.10;;
59516;SDS011;45342;42.662;27.718;2023-12-07T01:04:40;2.33;;;2.00;;
59516;SDS011;45342;42.662;27.718;2023-12-07T01:07:06;2.10;;;1.90;;
59516;SDS011;45342;42.662;27.718;2023-12-07T01:09:33;2.00;;;1.70;;
59516;SDS011;45342;42.662;27.718;2023-12-07T01:11:58;3.10;;;2.10;;
59516;SDS011;45342;42.662;27.718;2023-12-07T01:14:24;2.58;;;2.00;;
59516;SDS011;45342;42.662;27.718;2023-12-07T01:16:50;2.28;;;1.80;;
59516;SDS011;45342;42.662;27.718;2023-12-07T01:19:16;2.65;;;1.95;;
59516;SDS011;45342;42.662;27.718;2023-12-07T01:21:42;2.50;;;2.05;;
59516;SDS011;45342;42.662;27.718;2023-12-07T01:24:08;2.80;;;2.17;;
59516;SDS011;45342;42.662;27.718;2023-12-07T01:26:33;2.58;;;2.13;;
59516;SDS011;45342;42.662;27.718;2023-12-07T01:28:59;3.13;;;1.80;;
59516;SDS011;45342;42.662;27.718;2023-12-07T01:31:25;2.95;;;2.03;;
59516;SDS011;45342;42.662;27.718;2023-12-07T01:33:51;2.92;;;2.13;;
59516;SDS011;45342;42.662;27.718;2023-12-07T01:36:16;2.80;;;2.22;;
59516;SDS011;45342;42.662;27.718;2023-12-07T01:38:42;2.88;;;1.80;;
59516;SDS011;45342;42.662;27.718;2023-12-07T01:41:08;2.22;;;1.83;;
59516;SDS011;45342;42.662;27.718;2023-12-07T01:43:34;3.17;;;2.03;;
59516;SDS011;45342;42.662;27.718;2023-12-07T01:46:00;3.03;;;2.15;;
59516;SDS011;45342;42.662;27.718;2023-12-07T01:50:55;2.47;;;2.20;;
59516;SDS011;45342;42.662;27.718;2023-12-07T01:53:23;1.92;;;1.73;;
59516;SDS011;45342;42.662;27.718;2023-12-07T01:55:49;2.85;;;2.08;;
59516;SDS011;45342;42.662;27.718;2023-12-07T01:58:17;2.40;;;1.80;;
59516;SDS011;45342;42.662;27.718;2023-12-07T02:00:43;2.25;;;1.60;;
59516;SDS011;45342;42.662;27.718;2023-12-07T02:03:08;1.98;;;1.80;;
59516;SDS011;45342;42.662;27.718;2023-12-07T02:05:34;1.90;;;1.60;;
59516;SDS011;45342;42.662;27.718;2023-12-07T02:10:26;2.30;;;1.77;;
59516;SDS011;45342;42.662;27.718;2023-12-07T02:12:52;2.15;;;1.60;;
59516;SDS011;45342;42.662;27.718;2023-12-07T02:15:20;2.33;;;1.88;;
59516;SDS011;45342;42.662;27.718;2023-12-07T02:20:39;2.55;;;1.75;;
59516;SDS011;45342;42.662;27.718;2023-12-07T02:23:09;1.90;;;1.70;;
59516;SDS011;45342;42.662;27.718;2023-12-07T02:25:40;2.08;;;1.80;;
59516;SDS011;45342;42.662;27.718;2023-12-07T02:28:43;2.45;;;1.67;;
59516;SDS011;45342;42.662;27.718;2023-12-07T02:31:09;2.95;;;1.77;;
59516;SDS011;45342;42.662;27.718;2023-12-07T02:33:34;1.95;;;1.65;;
59516;SDS011;45342;42.662;27.718;2023-12-07T02:36:00;2.35;;;1.80;;
59516;SDS011;45342;42.662;27.718;2023-12-07T02:38:26;1.80;;;1.65;;
59516;SDS011;45342;42.662;27.718;2023-12-07T02:40:52;2.17;;;1.70;;
59516;SDS011;45342;42.662;27.718;2023-12-07T02:43:19;2.20;;;1.70;;
59516;SDS011;45342;42.662;27.718;2023-12-07T02:45:46;2.20;;;1.70;;
59516;SDS011;45342;42.662;27.718;2023-12-07T02:48:12;2.97;;;2.22;;
59516;SDS011;45342;42.662;27.718;2023-12-07T02:50:37;1.77;;;1.67;;
59516;SDS011;45342;42.662;27.718;2023-12-07T02:53:03;1.70;;;1.60;;
59516;SDS011;45342;42.662;27.718;2023-12-07T02:55:29;1.98;;;1.70;;
59516;SDS011;45342;42.662;27.718;2023-12-07T02:57:54;2.47;;;1.80;;
59516;SDS011;45342;42.662;27.718;2023-12-07T03:00:20;1.95;;;1.60;;
59516;SDS011;45342;42.662;27.718;2023-12-07T03:02:47;1.92;;;1.60;;
59516;SDS011;45342;42.662;27.718;2023-12-07T03:05:13;2.40;;;1.70;;
59516;SDS011;45342;42.662;27.718;2023-12-07T03:07:39;1.90;;;1.67;;
59516;SDS011;45342;42.662;27.718;2023-12-07T03:10:04;1.88;;;1.60;;
59516;SDS011;45342;42.662;27.718;2023-12-07T03:12:30;2.10;;;1.83;;
59516;SDS011;45342;42.662;27.718;2023-12-07T03:14:56;1.83;;;1.60;;
59516;SDS011;45342;42.662;27.718;2023-12-07T03:17:22;2.95;;;1.60;;
59516;SDS011;45342;42.662;27.718;2023-12-07T03:19:47;1.98;;;1.60;;
59516;SDS011;45342;42.662;27.718;2023-12-07T03:22:13;3.53;;;1.85;;
59516;SDS011;45342;42.662;27.718;2023-12-07T03:24:39;2.15;;;1.50;;
59516;SDS011;45342;42.662;27.718;2023-12-07T03:27:09;2.00;;;1.65;;
59516;SDS011;45342;42.662;27.718;2023-12-07T03:29:34;1.80;;;1.65;;
59516;SDS011;45342;42.662;27.718;2023-12-07T03:32:00;1.90;;;1.70;;
59516;SDS011;45342;42.662;27.718;2023-12-07T03:34:25;1.58;;;1.48;;
59516;SDS011;45342;42.662;27.718;2023-12-07T03:36:51;2.55;;;1.55;;
59516;SDS011;45342;42.662;27.718;2023-12-07T03:39:17;2.10;;;1.70;;
59516;SDS011;45342;42.662;27.718;2023-12-07T03:41:50;2.08;;;1.70;;
59516;SDS011;45342;42.662;27.718;2023-12-07T03:44:16;2.35;;;1.95;;
59516;SDS011;45342;42.662;27.718;2023-12-07T03:46:41;1.70;;;1.42;;
59516;SDS011;45342;42.662;27.718;2023-12-07T03:49:07;1.77;;;1.58;;
59516;SDS011;45342;42.662;27.718;2023-12-07T03:51:33;1.73;;;1.60;;
59516;SDS011;45342;42.662;27.718;2023-12-07T03:54:01;2.47;;;1.70;;
59516;SDS011;45342;42.662;27.718;2023-12-07T03:56:27;2.10;;;1.73;;
59516;SDS011;45342;42.662;27.718;2023-12-07T03:58:54;1.85;;;1.58;;
59516;SDS011;45342;42.662;27.718;2023-12-07T04:01:23;1.92;;;1.52;;
59516;SDS011;45342;42.662;27.718;2023-12-07T04:03:50;1.65;;;1.48;;
59516;SDS011;45342;42.662;27.718;2023-12-07T04:06:16;3.03;;;1.42;;
59516;SDS011;45342;42.662;27.718;2023-12-07T04:08:43;2.60;;;1.48;;
59516;SDS011;45342;42.662;27.718;2023-12-07T04:13:35;1.65;;;1.35;;
59516;SDS011;45342;42.662;27.718;2023-12-07T04:16:01;1.88;;;1.70;;
59516;SDS011;45342;42.662;27.718;2023-12-07T04:18:28;1.50;;;1.40;;
59516;SDS011;45342;42.662;27.718;2023-12-07T04:20:54;2.20;;;1.48;;
59516;SDS011;45342;42.662;27.718;2023-12-07T04:23:19;1.58;;;1.40;;
59516;SDS011;45342;42.662;27.718;2023-12-07T04:25:45;1.63;;;1.50;;
59516;SDS011;45342;42.662;27.718;2023-12-07T04:28:11;1.50;;;1.40;;
59516;SDS011;45342;42.662;27.718;2023-12-07T04:30:36;1.58;;;1.48;;
59516;SDS011;45342;42.662;27.718;2023-12-07T04:33:02;1.50;;;1.40;;
59516;SDS011;45342;42.662;27.718;2023-12-07T04:35:28;1.30;;;1.20;;
59516;SDS011;45342;42.662;27.718;2023-12-07T04:37:55;1.45;;;1.35;;
59516;SDS011;45342;42.662;27.718;2023-12-07T04:40:21;1.67;;;1.33;;
59516;SDS011;45342;42.662;27.718;2023-12-07T04:42:46;1.60;;;1.40;;
59516;SDS011;45342;42.662;27.718;2023-12-07T04:45:12;1.50;;;1.30;;
59516;SDS011;45342;42.662;27.718;2023-12-07T04:47:38;1.55;;;1.35;;
59516;SDS011;45342;42.662;27.718;2023-12-07T04:50:04;1.30;;;1.20;;
59516;SDS011;45342;42.662;27.718;2023-12-07T04:52:30;1.67;;;1.38;;
59516;SDS011;45342;42.662;27.718;2023-12-07T04:54:56;1.35;;;1.20;;
59516;SDS011;45342;42.662;27.718;2023-12-07T04:57:21;1.50;;;1.40;;
59516;SDS011;45342;42.662;27.718;2023-12-07T04:59:47;1.50;;;1.20;;
59516;SDS011;45342;42.662;27.718;2023-12-07T05:02:14;1.63;;;1.45;;
59516;SDS011;45342;42.662;27.718;2023-12-07T05:04:40;1.88;;;1.10;;
59516;SDS011;45342;42.662;27.718;2023-12-07T05:07:06;1.27;;;1.10;;
59516;SDS011;45342;42.662;27.718;2023-12-07T05:09:31;1.65;;;1.38;;
59516;SDS011;45342;42.662;27.718;2023-12-07T05:11:58;1.63;;;1.20;;
59516;SDS011;45342;42.662;27.718;2023-12-07T05:14:24;2.55;;;1.20;;
59516;SDS011;45342;42.662;27.718;2023-12-07T05:16:50;1.40;;;1.30;;
59516;SDS011;45342;42.662;27.718;2023-12-07T05:19:25;1.40;;;1.15;;
59516;SDS011;45342;42.662;27.718;2023-12-07T05:21:51;1.70;;;1.20;;
59516;SDS011;45342;42.662;27.718;2023-12-07T05:24:17;1.40;;;1.30;;
59516;SDS011;45342;42.662;27.718;2023-12-07T05:26:43;1.58;;;1.20;;
59516;SDS011;45342;42.662;27.718;2023-12-07T05:29:11;1.30;;;1.17;;
59516;SDS011;45342;42.662;27.718;2023-12-07T05:31:37;1.67;;;0.82;;
59516;SDS011;45342;42.662;27.718;2023-12-07T05:34:03;1.98;;;1.30;;
59516;SDS011;45342;42.662;27.718;2023-12-07T05:36:28;1.85;;;1.27;;
59516;SDS011;45342;42.662;27.718;2023-12-07T05:38:54;1.10;;;1.00;;
59516;SDS011;45342;42.662;27.718;2023-12-07T05:41:20;2.13;;;1.20;;
59516;SDS011;45342;42.662;27.718;2023-12-07T05:43:46;1.88;;;1.02;;
59516;SDS011;45342;42.662;27.718;2023-12-07T05:46:12;1.35;;;1.00;;
59516;SDS011;45342;42.662;27.718;2023-12-07T05:48:37;1.02;;;0.90;;
59516;SDS011;45342;42.662;27.718;2023-12-07T05:51:03;1.00;;;0.90;;
59516;SDS011;45342;42.662;27.718;2023-12-07T05:53:29;1.50;;;1.15;;
59516;SDS011;45342;42.662;27.718;2023-12-07T05:55:58;1.17;;;0.90;;
59516;SDS011;45342;42.662;27.718;2023-12-07T06:00:49;1.35;;;1.00;;
59516;SDS011;45342;42.662;27.718;2023-12-07T06:03:15;1.20;;;1.10;;
59516;SDS011;45342;42.662;27.718;2023-12-07T06:05:41;1.75;;;1.13;;
59516;SDS011;45342;42.662;27.718;2023-12-07T06:08:07;1.85;;;1.08;;
59516;SDS011;45342;42.662;27.718;2023-12-07T06:10:33;1.95;;;1.10;;
59516;SDS011;45342;42.662;27.718;2023-12-07T06:12:59;1.48;;;1.05;;
59516;SDS011;45342;42.662;27.718;2023-12-07T06:15:26;0.93;;;0.80;;
59516;SDS011;45342;42.662;27.718;2023-12-07T06:17:53;2.63;;;1.10;;
59516;SDS011;45342;42.662;27.718;2023-12-07T06:20:19;1.35;;;1.02;;
59516;SDS011;45342;42.662;27.718;2023-12-07T06:22:45;2.65;;;1.00;;
59516;SDS011;45342;42.662;27.718;2023-12-07T06:25:11;1.02;;;0.90;;
59516;SDS011;45342;42.662;27.718;2023-12-07T06:27:37;1.10;;;1.00;;
59516;SDS011;45342;42.662;27.718;2023-12-07T06:30:04;1.70;;;0.98;;
59516;SDS011;45342;42.662;27.718;2023-12-07T06:32:34;1.00;;;0.95;;
59516;SDS011;45342;42.662;27.718;2023-12-07T06:35:00;1.83;;;0.90;;
59516;SDS011;45342;42.662;27.718;2023-12-07T06:37:25;2.08;;;0.90;;
59516;SDS011;45342;42.662;27.718;2023-12-07T06:39:52;3.15;;;0.90;;
59516;SDS011;45342;42.662;27.718;2023-12-07T06:42:17;1.00;;;0.90;;
59516;SDS011;45342;42.662;27.718;2023-12-07T06:44:45;1.20;;;0.82;;
59516;SDS011;45342;42.662;27.718;2023-12-07T06:47:13;2.53;;;1.02;;
59516;SDS011;45342;42.662;27.718;2023-12-07T06:49:39;1.05;;;0.90;;
59516;SDS011;45342;42.662;27.718;2023-12-07T06:52:04;1.20;;;1.10;;
59516;SDS011;45342;42.662;27.718;2023-12-07T06:54:30;1.70;;;0.90;;
59516;SDS011;45342;42.662;27.718;2023-12-07T06:56:56;1.40;;;1.00;;
59516;SDS011;45342;42.662;27.718;2023-12-07T06:59:21;1.73;;;0.98;;
59516;SDS011;45342;42.662;27.718;2023-12-07T07:01:47;0.98;;;0.95;;
59516;SDS011;45342;42.662;27.718;2023-12-07T07:04:14;1.73;;;1.17;;
59516;SDS011;45342;42.662;27.718;2023-12-07T07:06:42;1.73;;;1.00;;
59516;SDS011;45342;42.662;27.718;2023-12-07T07:09:09;1.10;;;0.90;;
59516;SDS011;45342;42.662;27.718;2023-12-07T07:11:35;1.60;;;0.95;;
59516;SDS011;45342;42.662;27.718;2023-12-07T07:14:02;1.08;;;1.00;;
59516;SDS011;45342;42.662;27.718;2023-12-07T07:16:28;1.05;;;0.93;;
59516;SDS011;45342;42.662;27.718;2023-12-07T07:18:53;1.13;;;1.02;;
59516;SDS011;45342;42.662;27.718;2023-12-07T07:21:19;1.80;;;1.08;;
59516;SDS011;45342;42.662;27.718;2023-12-07T07:23:45;1.38;;;1.25;;
59516;SDS011;45342;42.662;27.718;2023-12-07T07:26:11;1.20;;;1.10;;
59516;SDS011;45342;42.662;27.718;2023-12-07T07:28:42;1.33;;;1.00;;
59516;SDS011;45342;42.662;27.718;2023-12-07T07:31:10;1.10;;;1.00;;
59516;SDS011;45342;42.662;27.718;2023-12-07T07:33:36;1.40;;;1.17;;
59516;SDS011;45342;42.662;27.718;2023-12-07T07:36:22;1.20;;;1.10;;
59516;SDS011;45342;42.662;27.718;2023-12-07T07:38:48;1.42;;;0.90;;
59516;SDS011;45342;42.662;27.718;2023-12-07T07:41:14;1.33;;;1.20;;
59516;SDS011;45342;42.662;27.718;2023-12-07T07:43:39;1.33;;;1.05;;
59516;SDS011;45342;42.662;27.718;2023-12-07T07:46:06;1.67;;;1.05;;
59516;SDS011;45342;42.662;27.718;2023-12-07T07:48:32;1.73;;;0.90;;
59516;SDS011;45342;42.662;27.718;2023-12-07T07:50:58;0.93;;;0.90;;
59516;SDS011;45342;42.662;27.718;2023-12-07T07:55:50;1.88;;;1.10;;
59516;SDS011;45342;42.662;27.718;2023-12-07T07:58:15;1.65;;;1.13;;
59516;SDS011;45342;42.662;27.718;2023-12-07T08:00:41;0.90;;;0.90;;
59516;SDS011;45342;42.662;27.718;2023-12-07T08:03:07;1.13;;;1.02;;
59516;SDS011;45342;42.662;27.718;2023-12-07T08:05:33;2.30;;;1.60;;
59516;SDS011;45342;42.662;27.718;2023-12-07T08:07:59;1.70;;;1.25;;
59516;SDS011;45342;42.662;27.718;2023-12-07T08:10:24;1.67;;;1.30;;
59516;SDS011;45342;42.662;27.718;2023-12-07T08:12:50;3.90;;;1.45;;
59516;SDS011;45342;42.662;27.718;2023-12-07T08:15:16;2.35;;;1.30;;
59516;SDS011;45342;42.662;27.718;2023-12-07T08:17:41;2.58;;;1.33;;
59516;SDS011;45342;42.662;27.718;2023-12-07T08:20:08;2.20;;;1.30;;
59516;SDS011;45342;42.662;27.718;2023-12-07T08:22:36;2.20;;;1.50;;
59516;SDS011;45342;42.662;27.718;2023-12-07T08:25:04;1.55;;;1.30;;
59516;SDS011;45342;42.662;27.718;2023-12-07T08:27:32;1.30;;;1.20;;
59516;SDS011;45342;42.662;27.718;2023-12-07T08:29:58;3.20;;;1.70;;
59516;SDS011;45342;42.662;27.718;2023-12-07T08:32:24;2.42;;;1.48;;
59516;SDS011;45342;42.662;27.718;2023-12-07T08:37:19;1.35;;;1.20;;
59516;SDS011;45342;42.662;27.718;2023-12-07T08:39:45;2.25;;;1.48;;
59516;SDS011;45342;42.662;27.718;2023-12-07T08:42:11;1.92;;;1.33;;
59516;SDS011;45342;42.662;27.718;2023-12-07T08:47:03;2.38;;;1.30;;
59516;SDS011;45342;42.662;27.718;2023-12-07T08:49:29;2.10;;;1.50;;
59516;SDS011;45342;42.662;27.718;2023-12-07T08:51:54;2.83;;;1.50;;
59516;SDS011;45342;42.662;27.718;2023-12-07T08:56:46;3.30;;;1.40;;
59516;SDS011;45342;42.662;27.718;2023-12-07T08:59:12;2.88;;;1.60;;
59516;SDS011;45342;42.662;27.718;2023-12-07T09:01:38;2.13;;;1.38;;
59516;SDS011;45342;42.662;27.718;2023-12-07T09:04:04;2.90;;;1.55;;
59516;SDS011;45342;42.662;27.718;2023-12-07T09:08:56;1.63;;;1.20;;
59516;SDS011;45342;42.662;27.718;2023-12-07T09:11:21;1.50;;;1.27;;
59516;SDS011;45342;42.662;27.718;2023-12-07T09:13:48;1.92;;;1.20;;
59516;SDS011;45342;42.662;27.718;2023-12-07T09:16:13;3.15;;;1.30;;
59516;SDS011;45342;42.662;27.718;2023-12-07T09:18:41;3.38;;;1.77;;
59516;SDS011;45342;42.662;27.718;2023-12-07T09:21:07;3.45;;;1.90;;
59516;SDS011;45342;42.662;27.718;2023-12-07T09:23:32;2.50;;;1.65;;
59516;SDS011;45342;42.662;27.718;2023-12-07T09:26:00;2.75;;;1.77;;
59516;SDS011;45342;42.662;27.718;2023-12-07T09:28:26;2.13;;;1.50;;
59516;SDS011;45342;42.662;27.718;2023-12-07T09:30:51;2.92;;;1.70;;
59516;SDS011;45342;42.662;27.718;2023-12-07T09:33:17;2.65;;;1.95;;
59516;SDS011;45342;42.662;27.718;2023-12-07T09:35:43;3.00;;;1.70;;
59516;SDS011;45342;42.662;27.718;2023-12-07T09:38:08;2.30;;;1.38;;
59516;SDS011;45342;42.662;27.718;2023-12-07T09:43:00;2.28;;;1.35;;
59516;SDS011;45342;42.662;27.718;2023-12-07T09:45:26;1.85;;;1.50;;
59516;SDS011;45342;42.662;27.718;2023-12-07T09:47:52;2.85;;;1.95;;
59516;SDS011;45342;42.662;27.718;2023-12-07T09:50:22;2.38;;;1.73;;
59516;SDS011;45342;42.662;27.718;2023-12-07T09:52:49;2.65;;;1.83;;
59516;SDS011;45342;42.662;27.718;2023-12-07T09:55:19;3.42;;;1.85;;
59516;SDS011;45342;42.662;27.718;2023-12-07T09:57:48;3.40;;;1.92;;
59516;SDS011;45342;42.662;27.718;2023-12-07T10:00:19;2.55;;;1.67;;
59516;SDS011;45342;42.662;27.718;2023-12-07T10:02:45;5.20;;;2.40;;
59516;SDS011;45342;42.662;27.718;2023-12-07T10:07:48;2.67;;;1.77;;
59516;SDS011;45342;42.662;27.718;2023-12-07T10:10:15;2.88;;;1.80;;
59516;SDS011;45342;42.662;27.718;2023-12-07T10:15:12;2.33;;;1.55;;
59516;SDS011;45342;42.662;27.718;2023-12-07T10:17:49;4.20;;;1.80;;
59516;SDS011;45342;42.662;27.718;2023-12-07T10:20:22;1.70;;;1.40;;
59516;SDS011;45342;42.662;27.718;2023-12-07T10:22:49;2.75;;;1.50;;
59516;SDS011;45342;42.662;27.718;2023-12-07T10:25:28;1.83;;;1.38;;
59516;SDS011;45342;42.662;27.718;2023-12-07T10:27:55;2.42;;;1.60;;
59516;SDS011;45342;42.662;27.718;2023-12-07T10:30:21;1.70;;;1.50;;
59516;SDS011;45342;42.662;27.718;2023-12-07T10:32:50;2.42;;;1.50;;
59516;SDS011;45342;42.662;27.718;2023-12-07T10:35:18;1.88;;;1.40;;
59516;SDS011;45342;42.662;27.718;2023-12-07T10:37:44;2.10;;;1.35;;
59516;SDS011;45342;42.662;27.718;2023-12-07T10:40:11;2.25;;;1.60;;
59516;SDS011;45342;42.662;27.718;2023-12-07T10:42:37;1.67;;;1.40;;
59516;SDS011;45342;42.662;27.718;2023-12-07T10:45:03;2.15;;;1.40;;
59516;SDS011;45342;42.662;27.718;2023-12-07T10:47:32;2.05;;;1.45;;
59516;SDS011;45342;42.662;27.718;2023-12-07T10:50:01;2.78;;;1.58;;
59516;SDS011;45342;42.662;27.718;2023-12-07T10:52:28;1.85;;;1.65;;
59516;SDS011;45342;42.662;27.718;2023-12-07T10:57:32;2.33;;;1.40;;
59516;SDS011;45342;42.662;27.718;2023-12-07T10:59:59;1.67;;;1.38;;
59516;SDS011;45342;42.662;27.718;2023-12-07T11:02:29;1.85;;;1.65;;
59516;SDS011;45342;42.662;27.718;2023-12-07T11:04:55;2.20;;;1.70;;
59516;SDS011;45342;42.662;27.718;2023-12-07T11:07:23;1.63;;;1.40;;
59516;SDS011;45342;42.662;27.718;2023-12-07T11:09:58;1.85;;;1.70;;
59516;SDS011;45342;42.662;27.718;2023-12-07T11:12:33;1.60;;;1.50;;
59516;SDS011;45342;42.662;27.718;2023-12-07T11:15:02;2.15;;;1.63;;
59516;SDS011;45342;42.662;27.718;2023-12-07T11:19:54;4.13;;;1.70;;
59516;SDS011;45342;42.662;27.718;2023-12-07T11:22:20;1.98;;;1.60;;
59516;SDS011;45342;42.662;27.718;2023-12-07T11:24:52;1.85;;;1.70;;
59516;SDS011;45342;42.662;27.718;2023-12-07T11:27:24;2.17;;;1.50;;
59516;SDS011;45342;42.662;27.718;2023-12-07T11:29:50;1.42;;;1.33;;
59516;SDS011;45342;42.662;27.718;2023-12-07T11:32:16;5.00;;;1.45;;
59516;SDS011;45342;42.662;27.718;2023-12-07T11:34:43;1.75;;;1.40;;
59516;SDS011;45342;42.662;27.718;2023-12-07T11:37:09;2.17;;;1.42;;
59516;SDS011;45342;42.662;27.718;2023-12-07T11:39:40;2.03;;;1.52;;
59516;SDS011;45342;42.662;27.718;2023-12-07T11:44:40;1.88;;;1.52;;
59516;SDS011;45342;42.662;27.718;2023-12-07T11:47:07;2.40;;;1.45;;
59516;SDS011;45342;42.662;27.718;2023-12-07T11:49:34;2.25;;;1.60;;
59516;SDS011;45342;42.662;27.718;2023-12-07T11:52:00;1.65;;;1.42;;
59516;SDS011;45342;42.662;27.718;2023-12-07T11:56:55;1.33;;;1.23;;
59516;SDS011;45342;42.662;27.718;2023-12-07T11:59:24;1.48;;;1.30;;
59516;SDS011;45342;42.662;27.718;2023-12-07T12:01:52;2.08;;;1.35;;
59516;SDS011;45342;42.662;27.718;2023-12-07T12:04:18;2.30;;;1.67;;
59516;SDS011;45342;42.662;27.718;2023-12-07T12:06:44;2.20;;;1.48;;
59516;SDS011;45342;42.662;27.718;2023-12-07T12:11:48;2.97;;;1.77;;
59516;SDS011;45342;42.662;27.718;2023-12-07T12:14:15;3.20;;;1.70;;
59516;SDS011;45342;42.662;27.718;2023-12-07T12:16:57;4.18;;;1.60;;
59516;SDS011;45342;42.662;27.718;2023-12-07T12:19:23;3.75;;;1.50;;
59516;SDS011;45342;42.662;27.718;2023-12-07T12:21:52;3.42;;;1.77;;
59516;SDS011;45342;42.662;27.718;2023-12-07T12:24:19;3.20;;;1.75;;
59516;SDS011;45342;42.662;27.718;2023-12-07T12:26:45;3.38;;;1.70;;
59516;SDS011;45342;42.662;27.718;2023-12-07T12:29:12;3.97;;;1.90;;
59516;SDS011;45342;42.662;27.718;2023-12-07T12:31:39;4.45;;;1.88;;
59516;SDS011;45342;42.662;27.718;2023-12-07T12:36:34;5.47;;;2.33;;
59516;SDS011;45342;42.662;27.718;2023-12-07T12:39:00;4.18;;;2.20;;
59516;SDS011;45342;42.662;27.718;2023-12-07T12:41:27;5.95;;;2.40;;
59516;SDS011;45342;42.662;27.718;2023-12-07T12:43:56;4.82;;;2.03;;
59516;SDS011;45342;42.662;27.718;2023-12-07T12:46:22;3.88;;;2.15;;
59516;SDS011;45342;42.662;27.718;2023-12-07T12:48:54;5.80;;;2.10;;
59516;SDS011;45342;42.662;27.718;2023-12-07T12:51:22;4.50;;;2.40;;
59516;SDS011;45342;42.662;27.718;2023-12-07T12:53:50;3.55;;;2.20;;
59516;SDS011;45342;42.662;27.718;2023-12-07T12:56:16;3.25;;;1.88;;
59516;SDS011;45342;42.662;27.718;2023-12-07T12:58:42;3.33;;;2.00;;
59516;SDS011;45342;42.662;27.718;2023-12-07T13:01:07;3.28;;;2.03;;
59516;SDS011;45342;42.662;27.718;2023-12-07T13:03:33;4.05;;;2.25;;
59516;SDS011;45342;42.662;27.718;2023-12-07T13:05:59;4.38;;;2.33;;
59516;SDS011;45342;42.662;27.718;2023-12-07T13:08:24;4.47;;;2.10;;
59516;SDS011;45342;42.662;27.718;2023-12-07T13:10:50;3.17;;;1.98;;
59516;SDS011;45342;42.662;27.718;2023-12-07T13:13:16;3.45;;;1.83;;
59516;SDS011;45342;42.662;27.718;2023-12-07T13:15:42;3.53;;;1.92;;
59516;SDS011;45342;42.662;27.718;2023-12-07T13:18:07;3.13;;;1.80;;
59516;SDS011;45342;42.662;27.718;2023-12-07T13:20:33;3.50;;;1.85;;
59516;SDS011;45342;42.662;27.718;2023-12-07T13:23:03;3.83;;;2.20;;
59516;SDS011;45342;42.662;27.718;2023-12-07T13:25:29;3.20;;;1.77;;
59516;SDS011;45342;42.662;27.718;2023-12-07T13:27:55;2.88;;;1.88;;
59516;SDS011;45342;42.662;27.718;2023-12-07T13:30:21;3.40;;;2.20;;
59516;SDS011;45342;42.662;27.718;2023-12-07T13:32:47;4.35;;;1.80;;
59516;SDS011;45342;42.662;27.718;2023-12-07T13:35:13;4.05;;;2.00;;
59516;SDS011;45342;42.662;27.718;2023-12-07T13:37:38;4.07;;;2.17;;
59516;SDS011;45342;42.662;27.718;2023-12-07T13:40:04;2.72;;;1.92;;
59516;SDS011;45342;42.662;27.718;2023-12-07T13:42:35;3.72;;;2.30;;
59516;SDS011;45342;42.662;27.718;2023-12-07T13:47:27;2.65;;;1.60;;
59516;SDS011;45342;42.662;27.718;2023-12-07T13:50:01;2.75;;;1.83;;
59516;SDS011;45342;42.662;27.718;2023-12-07T13:52:29;3.95;;;1.98;;
59516;SDS011;45342;42.662;27.718;2023-12-07T13:54:55;2.10;;;1.83;;
59516;SDS011;45342;42.662;27.718;2023-12-07T13:57:22;3.92;;;2.20;;
59516;SDS011;45342;42.662;27.718;2023-12-07T13:59:51;4.60;;;2.00;;
59516;SDS011;45342;42.662;27.718;2023-12-07T14:04:42;2.00;;;1.65;;
59516;SDS011;45342;42.662;27.718;2023-12-07T14:07:17;3.20;;;1.80;;
59516;SDS011;45342;42.662;27.718;2023-12-07T14:09:45;2.17;;;1.85;;
59516;SDS011;45342;42.662;27.718;2023-12-07T14:12:13;2.25;;;1.83;;
59516;SDS011;45342;42.662;27.718;2023-12-07T14:14:43;2.25;;;1.80;;
59516;SDS011;45342;42.662;27.718;2023-12-07T14:17:13;3.08;;;2.05;;
59516;SDS011;45342;42.662;27.718;2023-12-07T14:19:39;3.72;;;2.00;;
59516;SDS011;45342;42.662;27.718;2023-12-07T14:24:34;2.22;;;1.77;;
59516;SDS011;45342;42.662;27.718;2023-12-07T14:27:01;2.90;;;2.03;;
59516;SDS011;45342;42.662;27.718;2023-12-07T14:29:29;2.45;;;1.77;;
59516;SDS011;45342;42.662;27.718;2023-12-07T14:31:55;2.25;;;1.90;;
59516;SDS011;45342;42.662;27.718;2023-12-07T14:34:21;2.35;;;1.80;;
59516;SDS011;45342;42.662;27.718;2023-12-07T14:36:46;4.22;;;1.90;;
59516;SDS011;45342;42.662;27.718;2023-12-07T14:39:12;3.70;;;2.10;;
59516;SDS011;45342;42.662;27.718;2023-12-07T14:41:48;5.53;;;1.90;;
59516;SDS011;45342;42.662;27.718;2023-12-07T14:44:16;8.38;;;2.60;;
59516;SDS011;45342;42.662;27.718;2023-12-07T14:46:42;2.65;;;2.20;;
59516;SDS011;45342;42.662;27.718;2023-12-07T14:49:09;6.25;;;2.28;;
59516;SDS011;45342;42.662;27.718;2023-12-07T14:51:38;3.33;;;2.20;;
59516;SDS011;45342;42.662;27.718;2023-12-07T14:54:04;6.85;;;2.50;;
59516;SDS011;45342;42.662;27.718;2023-12-07T14:58:56;6.32;;;2.47;;
59516;SDS011;45342;42.662;27.718;2023-12-07T15:01:23;7.75;;;2.60;;
59516;SDS011;45342;42.662;27.718;2023-12-07T15:03:51;4.72;;;2.63;;
59516;SDS011;45342;42.662;27.718;2023-12-07T15:06:16;6.88;;;2.50;;
59516;SDS011;45342;42.662;27.718;2023-12-07T15:11:08;5.50;;;2.45;;
59516;SDS011;45342;42.662;27.718;2023-12-07T15:13:37;4.63;;;2.67;;
59516;SDS011;45342;42.662;27.718;2023-12-07T15:16:03;5.10;;;2.80;;
59516;SDS011;45342;42.662;27.718;2023-12-07T15:18:29;4.80;;;2.40;;
59516;SDS011;45342;42.662;27.718;2023-12-07T15:20:59;5.78;;;2.53;;
59516;SDS011;45342;42.662;27.718;2023-12-07T15:23:26;6.78;;;3.15;;
59516;SDS011;45342;42.662;27.718;2023-12-07T15:25:52;4.22;;;2.47;;
59516;SDS011;45342;42.662;27.718;2023-12-07T15:28:20;3.97;;;2.60;;
59516;SDS011;45342;42.662;27.718;2023-12-07T15:30:47;6.47;;;2.95;;
59516;SDS011;45342;42.662;27.718;2023-12-07T15:35:42;8.77;;;3.13;;
59516;SDS011;45342;42.662;27.718;2023-12-07T15:38:08;6.40;;;3.30;;